sensor_id;sensor_type;location;lat;lon;timestamp;P1;durP1;ratioP1;P2;durP2;ratioP2
789;SDS011;378;48.844;9.156;2024-03-06T00:01:08;5.82;;;2.40;;
789;SDS011;378;48.844;9.156;2024-03-06T00:03:35;3.47;;;1.98;;
789;SDS011;378;48.844;9.156;2024-03-06T00:06:01;3.92;;;2.33;;
789;SDS011;378;48.844;9.156;2024-03-06T00:08:30;2.72;;;1.88;;
789;SDS011;378;48.844;9.156;2024-03-06T00:10:57;3.33;;;1.90;;
789;SDS011;378;48.844;9.156;2024-03-06T00:13:23;4.47;;;2.10;;
789;SDS011;378;48.844;9.156;2024-03-06T00:15:50;8.55;;;2.60;;
789;SDS011;378;48.844;9.156;2024-03-06T00:18:17;3.03;;;2.05;;
789;SDS011;378;48.844;9.156;2024-03-06T00:20:44;7.70;;;2.30;;
789;SDS011;378;48.844;9.156;2024-03-06T00:23:10;4.90;;;1.98;;
789;SDS011;378;48.844;9.156;2024-03-06T00:25:39;4.55;;;2.08;;
789;SDS011;378;48.844;9.156;2024-03-06T00:28:06;3.97;;;1.90;;
789;SDS011;378;48.844;9.156;2024-03-06T00:30:32;5.30;;;1.98;;
789;SDS011;378;48.844;9.156;2024-03-06T00:32:59;3.60;;;2.08;;
789;SDS011;378;48.844;9.156;2024-03-06T00:35:26;3.25;;;2.10;;
789;SDS011;378;48.844;9.156;2024-03-06T00:37:53;5.32;;;1.98;;
789;SDS011;378;48.844;9.156;2024-03-06T00:40:20;3.72;;;1.92;;
789;SDS011;378;48.844;9.156;2024-03-06T00:42:49;3.55;;;1.90;;
789;SDS011;378;48.844;9.156;2024-03-06T00:45:15;3.97;;;2.08;;
789;SDS011;378;48.844;9.156;2024-03-06T00:47:42;3.63;;;1.65;;
789;SDS011;378;48.844;9.156;2024-03-06T00:50:09;5.78;;;2.00;;
789;SDS011;378;48.844;9.156;2024-03-06T00:52:36;6.78;;;2.20;;
789;SDS011;378;48.844;9.156;2024-03-06T00:55:03;6.68;;;3.05;;
789;SDS011;378;48.844;9.156;2024-03-06T00:57:30;7.65;;;3.58;;
789;SDS011;378;48.844;9.156;2024-03-06T00:59:59;6.63;;;3.53;;
789;SDS011;378;48.844;9.156;2024-03-06T01:02:25;7.80;;;3.70;;
789;SDS011;378;48.844;9.156;2024-03-06T01:04:52;6.97;;;3.67;;
789;SDS011;378;48.844;9.156;2024-03-06T01:07:19;7.85;;;3.88;;
789;SDS011;378;48.844;9.156;2024-03-06T01:09:46;6.70;;;3.55;;
789;SDS011;378;48.844;9.156;2024-03-06T01:12:13;5.88;;;2.80;;
789;SDS011;378;48.844;9.156;2024-03-06T01:14:39;5.05;;;2.30;;
789;SDS011;378;48.844;9.156;2024-03-06T01:17:09;6.47;;;2.00;;
789;SDS011;378;48.844;9.156;2024-03-06T01:19:35;5.57;;;2.33;;
789;SDS011;378;48.844;9.156;2024-03-06T01:22:02;5.95;;;2.28;;
789;SDS011;378;48.844;9.156;2024-03-06T01:24:29;2.70;;;1.92;;
789;SDS011;378;48.844;9.156;2024-03-06T01:26:56;3.70;;;2.30;;
789;SDS011;378;48.844;9.156;2024-03-06T01:29:23;5.72;;;2.10;;
789;SDS011;378;48.844;9.156;2024-03-06T01:31:49;5.07;;;2.00;;
789;SDS011;378;48.844;9.156;2024-03-06T01:34:17;7.30;;;2.35;;
789;SDS011;378;48.844;9.156;2024-03-06T01:36:44;7.88;;;2.40;;
789;SDS011;378;48.844;9.156;2024-03-06T01:39:11;3.22;;;1.77;;
789;SDS011;378;48.844;9.156;2024-03-06T01:41:44;7.00;;;2.05;;
789;SDS011;378;48.844;9.156;2024-03-06T01:44:11;4.70;;;2.22;;
789;SDS011;378;48.844;9.156;2024-03-06T01:46:38;3.70;;;2.20;;
789;SDS011;378;48.844;9.156;2024-03-06T01:49:04;3.63;;;2.10;;
789;SDS011;378;48.844;9.156;2024-03-06T01:51:33;3.28;;;2.13;;
789;SDS011;378;48.844;9.156;2024-03-06T01:54:01;6.20;;;2.40;;
789;SDS011;378;48.844;9.156;2024-03-06T01:56:29;2.67;;;1.90;;
789;SDS011;378;48.844;9.156;2024-03-06T01:58:56;5.25;;;2.33;;
789;SDS011;378;48.844;9.156;2024-03-06T02:01:24;3.90;;;2.00;;
789;SDS011;378;48.844;9.156;2024-03-06T02:03:51;3.58;;;2.13;;
789;SDS011;378;48.844;9.156;2024-03-06T02:06:19;4.38;;;2.10;;
789;SDS011;378;48.844;9.156;2024-03-06T02:08:48;3.30;;;1.85;;
789;SDS011;378;48.844;9.156;2024-03-06T02:11:15;5.38;;;2.95;;
789;SDS011;378;48.844;9.156;2024-03-06T02:13:42;6.90;;;2.90;;
789;SDS011;378;48.844;9.156;2024-03-06T02:16:10;4.57;;;2.67;;
789;SDS011;378;48.844;9.156;2024-03-06T02:18:37;4.22;;;2.58;;
789;SDS011;378;48.844;9.156;2024-03-06T02:21:06;4.68;;;2.65;;
789;SDS011;378;48.844;9.156;2024-03-06T02:23:32;5.10;;;2.50;;
789;SDS011;378;48.844;9.156;2024-03-06T02:25:59;6.30;;;2.47;;
789;SDS011;378;48.844;9.156;2024-03-06T02:28:27;6.30;;;2.80;;
789;SDS011;378;48.844;9.156;2024-03-06T02:30:55;3.75;;;2.58;;
789;SDS011;378;48.844;9.156;2024-03-06T02:33:21;4.88;;;2.67;;
789;SDS011;378;48.844;9.156;2024-03-06T02:35:48;4.78;;;2.75;;
789;SDS011;378;48.844;9.156;2024-03-06T02:38:31;4.22;;;2.78;;
789;SDS011;378;48.844;9.156;2024-03-06T02:41:08;6.40;;;2.95;;
789;SDS011;378;48.844;9.156;2024-03-06T02:43:41;6.35;;;3.20;;
789;SDS011;378;48.844;9.156;2024-03-06T02:46:09;6.45;;;3.05;;
789;SDS011;378;48.844;9.156;2024-03-06T02:48:42;5.18;;;3.03;;
789;SDS011;378;48.844;9.156;2024-03-06T02:51:11;9.40;;;2.72;;
789;SDS011;378;48.844;9.156;2024-03-06T02:53:48;4.95;;;2.97;;
789;SDS011;378;48.844;9.156;2024-03-06T02:56:18;8.45;;;3.20;;
789;SDS011;378;48.844;9.156;2024-03-06T02:58:48;5.28;;;2.42;;
789;SDS011;378;48.844;9.156;2024-03-06T03:01:17;5.90;;;2.80;;
789;SDS011;378;48.844;9.156;2024-03-06T03:03:46;7.30;;;3.20;;
789;SDS011;378;48.844;9.156;2024-03-06T03:06:16;6.53;;;3.30;;
789;SDS011;378;48.844;9.156;2024-03-06T03:08:45;5.38;;;2.88;;
789;SDS011;378;48.844;9.156;2024-03-06T03:11:17;3.30;;;2.35;;
789;SDS011;378;48.844;9.156;2024-03-06T03:13:47;8.02;;;2.70;;
789;SDS011;378;48.844;9.156;2024-03-06T03:16:17;4.38;;;2.33;;
789;SDS011;378;48.844;9.156;2024-03-06T03:18:46;6.47;;;2.53;;
789;SDS011;378;48.844;9.156;2024-03-06T03:21:16;6.47;;;2.60;;
789;SDS011;378;48.844;9.156;2024-03-06T03:23:47;7.05;;;2.60;;
789;SDS011;378;48.844;9.156;2024-03-06T03:26:20;4.90;;;2.47;;
789;SDS011;378;48.844;9.156;2024-03-06T03:28:52;5.28;;;2.40;;
789;SDS011;378;48.844;9.156;2024-03-06T03:31:20;2.95;;;2.03;;
789;SDS011;378;48.844;9.156;2024-03-06T03:33:50;4.65;;;2.60;;
789;SDS011;378;48.844;9.156;2024-03-06T03:36:19;5.85;;;2.78;;
789;SDS011;378;48.844;9.156;2024-03-06T03:38:52;7.35;;;2.30;;
789;SDS011;378;48.844;9.156;2024-03-06T03:41:32;4.40;;;2.20;;
789;SDS011;378;48.844;9.156;2024-03-06T03:44:04;6.13;;;2.78;;
789;SDS011;378;48.844;9.156;2024-03-06T03:46:36;5.20;;;2.70;;
789;SDS011;378;48.844;9.156;2024-03-06T03:49:03;3.55;;;2.70;;
789;SDS011;378;48.844;9.156;2024-03-06T03:51:34;4.40;;;2.22;;
789;SDS011;378;48.844;9.156;2024-03-06T03:54:09;5.60;;;2.08;;
789;SDS011;378;48.844;9.156;2024-03-06T03:56:48;7.00;;;2.85;;
789;SDS011;378;48.844;9.156;2024-03-06T03:59:16;6.18;;;2.60;;
789;SDS011;378;48.844;9.156;2024-03-06T04:01:50;4.07;;;2.72;;
789;SDS011;378;48.844;9.156;2024-03-06T04:04:19;5.38;;;2.63;;
789;SDS011;378;48.844;9.156;2024-03-06T04:06:48;4.43;;;2.80;;
789;SDS011;378;48.844;9.156;2024-03-06T04:09:17;7.78;;;2.97;;
789;SDS011;378;48.844;9.156;2024-03-06T04:11:48;5.15;;;3.00;;
789;SDS011;378;48.844;9.156;2024-03-06T04:14:15;5.22;;;2.70;;
789;SDS011;378;48.844;9.156;2024-03-06T04:16:45;5.88;;;2.60;;
789;SDS011;378;48.844;9.156;2024-03-06T04:19:28;8.65;;;3.47;;
789;SDS011;378;48.844;9.156;2024-03-06T04:22:00;7.15;;;3.08;;
789;SDS011;378;48.844;9.156;2024-03-06T04:24:27;6.15;;;3.03;;
789;SDS011;378;48.844;9.156;2024-03-06T04:27:01;5.82;;;3.13;;
789;SDS011;378;48.844;9.156;2024-03-06T04:29:34;5.55;;;2.92;;
789;SDS011;378;48.844;9.156;2024-03-06T04:32:03;8.48;;;2.67;;
789;SDS011;378;48.844;9.156;2024-03-06T04:34:38;5.93;;;3.15;;
789;SDS011;378;48.844;9.156;2024-03-06T04:37:08;6.57;;;3.45;;
789;SDS011;378;48.844;9.156;2024-03-06T04:39:45;8.52;;;3.35;;
789;SDS011;378;48.844;9.156;2024-03-06T04:42:17;5.55;;;3.00;;
789;SDS011;378;48.844;9.156;2024-03-06T04:44:46;8.20;;;3.55;;
789;SDS011;378;48.844;9.156;2024-03-06T04:47:16;11.60;;;3.65;;
789;SDS011;378;48.844;9.156;2024-03-06T04:49:44;6.13;;;3.53;;
789;SDS011;378;48.844;9.156;2024-03-06T04:52:15;6.03;;;3.58;;
789;SDS011;378;48.844;9.156;2024-03-06T04:54:43;6.07;;;3.90;;
789;SDS011;378;48.844;9.156;2024-03-06T04:57:19;6.95;;;3.30;;
789;SDS011;378;48.844;9.156;2024-03-06T04:59:49;6.15;;;3.22;;
789;SDS011;378;48.844;9.156;2024-03-06T05:02:19;5.93;;;3.80;;
789;SDS011;378;48.844;9.156;2024-03-06T05:04:50;7.70;;;3.35;;
789;SDS011;378;48.844;9.156;2024-03-06T05:07:26;5.93;;;3.67;;
789;SDS011;378;48.844;9.156;2024-03-06T05:09:56;6.32;;;3.50;;
789;SDS011;378;48.844;9.156;2024-03-06T05:12:25;6.95;;;3.70;;
789;SDS011;378;48.844;9.156;2024-03-06T05:14:59;7.32;;;3.65;;
789;SDS011;378;48.844;9.156;2024-03-06T05:17:26;9.25;;;3.65;;
789;SDS011;378;48.844;9.156;2024-03-06T05:20:01;6.30;;;3.83;;
789;SDS011;378;48.844;9.156;2024-03-06T05:22:29;10.25;;;4.50;;
789;SDS011;378;48.844;9.156;2024-03-06T05:25:03;7.30;;;4.05;;
789;SDS011;378;48.844;9.156;2024-03-06T05:27:35;7.22;;;4.47;;
789;SDS011;378;48.844;9.156;2024-03-06T05:30:05;10.70;;;5.00;;
789;SDS011;378;48.844;9.156;2024-03-06T05:32:36;11.27;;;4.85;;
789;SDS011;378;48.844;9.156;2024-03-06T05:35:06;11.95;;;4.70;;
789;SDS011;378;48.844;9.156;2024-03-06T05:37:38;8.05;;;4.35;;
789;SDS011;378;48.844;9.156;2024-03-06T05:40:08;13.15;;;5.25;;
789;SDS011;378;48.844;9.156;2024-03-06T05:42:43;14.10;;;5.10;;
789;SDS011;378;48.844;9.156;2024-03-06T05:45:12;10.32;;;4.55;;
789;SDS011;378;48.844;9.156;2024-03-06T05:47:44;11.35;;;5.35;;
789;SDS011;378;48.844;9.156;2024-03-06T05:50:13;8.38;;;4.50;;
789;SDS011;378;48.844;9.156;2024-03-06T05:52:49;13.25;;;5.10;;
789;SDS011;378;48.844;9.156;2024-03-06T05:55:17;7.72;;;4.97;;
789;SDS011;378;48.844;9.156;2024-03-06T05:57:48;11.50;;;4.72;;
789;SDS011;378;48.844;9.156;2024-03-06T06:00:30;14.50;;;5.93;;
789;SDS011;378;48.844;9.156;2024-03-06T06:02:59;12.80;;;5.25;;
789;SDS011;378;48.844;9.156;2024-03-06T06:05:36;13.35;;;5.35;;
789;SDS011;378;48.844;9.156;2024-03-06T06:08:05;15.38;;;5.10;;
789;SDS011;378;48.844;9.156;2024-03-06T06:10:34;12.63;;;5.22;;
789;SDS011;378;48.844;9.156;2024-03-06T06:13:05;11.93;;;5.38;;
789;SDS011;378;48.844;9.156;2024-03-06T06:15:35;12.75;;;5.30;;
789;SDS011;378;48.844;9.156;2024-03-06T06:18:05;15.75;;;5.35;;
789;SDS011;378;48.844;9.156;2024-03-06T06:20:34;8.80;;;5.25;;
789;SDS011;378;48.844;9.156;2024-03-06T06:23:01;13.48;;;4.93;;
789;SDS011;378;48.844;9.156;2024-03-06T06:25:31;9.57;;;5.05;;
789;SDS011;378;48.844;9.156;2024-03-06T06:27:58;16.98;;;5.80;;
789;SDS011;378;48.844;9.156;2024-03-06T06:30:29;12.23;;;5.50;;
789;SDS011;378;48.844;9.156;2024-03-06T06:32:55;12.07;;;5.15;;
789;SDS011;378;48.844;9.156;2024-03-06T06:35:22;12.20;;;5.57;;
789;SDS011;378;48.844;9.156;2024-03-06T06:37:50;9.52;;;5.03;;
789;SDS011;378;48.844;9.156;2024-03-06T06:40:17;15.20;;;5.32;;
789;SDS011;378;48.844;9.156;2024-03-06T06:42:46;15.13;;;5.10;;
789;SDS011;378;48.844;9.156;2024-03-06T06:45:16;10.35;;;5.00;;
789;SDS011;378;48.844;9.156;2024-03-06T06:47:48;11.15;;;5.25;;
789;SDS011;378;48.844;9.156;2024-03-06T06:50:16;8.98;;;5.45;;
789;SDS011;378;48.844;9.156;2024-03-06T06:52:47;16.75;;;5.57;;
789;SDS011;378;48.844;9.156;2024-03-06T06:55:17;11.75;;;5.78;;
789;SDS011;378;48.844;9.156;2024-03-06T06:57:50;11.23;;;5.07;;
789;SDS011;378;48.844;9.156;2024-03-06T07:00:20;13.57;;;5.80;;
789;SDS011;378;48.844;9.156;2024-03-06T07:02:51;8.95;;;4.75;;
789;SDS011;378;48.844;9.156;2024-03-06T07:05:25;10.75;;;4.90;;
789;SDS011;378;48.844;9.156;2024-03-06T07:07:55;10.07;;;5.20;;
789;SDS011;378;48.844;9.156;2024-03-06T07:10:26;12.98;;;4.80;;
789;SDS011;378;48.844;9.156;2024-03-06T07:12:53;13.45;;;5.07;;
789;SDS011;378;48.844;9.156;2024-03-06T07:15:20;8.73;;;4.90;;
789;SDS011;378;48.844;9.156;2024-03-06T07:17:53;12.10;;;4.85;;
789;SDS011;378;48.844;9.156;2024-03-06T07:20:23;9.27;;;4.82;;
789;SDS011;378;48.844;9.156;2024-03-06T07:22:58;9.60;;;4.97;;
789;SDS011;378;48.844;9.156;2024-03-06T07:25:25;13.30;;;4.95;;
789;SDS011;378;48.844;9.156;2024-03-06T07:27:54;11.82;;;5.40;;
789;SDS011;378;48.844;9.156;2024-03-06T07:30:24;11.98;;;5.40;;
789;SDS011;378;48.844;9.156;2024-03-06T07:32:56;11.52;;;5.03;;
789;SDS011;378;48.844;9.156;2024-03-06T07:35:26;9.43;;;5.15;;
789;SDS011;378;48.844;9.156;2024-03-06T07:37:54;14.38;;;5.35;;
789;SDS011;378;48.844;9.156;2024-03-06T07:40:24;9.20;;;4.53;;
789;SDS011;378;48.844;9.156;2024-03-06T07:42:56;9.80;;;4.82;;
789;SDS011;378;48.844;9.156;2024-03-06T07:45:25;12.57;;;4.85;;
789;SDS011;378;48.844;9.156;2024-03-06T07:47:52;13.38;;;5.18;;
789;SDS011;378;48.844;9.156;2024-03-06T07:50:20;11.98;;;5.22;;
789;SDS011;378;48.844;9.156;2024-03-06T07:52:48;9.65;;;5.05;;
789;SDS011;378;48.844;9.156;2024-03-06T07:55:15;7.88;;;5.15;;
789;SDS011;378;48.844;9.156;2024-03-06T07:57:46;9.13;;;4.60;;
789;SDS011;378;48.844;9.156;2024-03-06T08:00:13;8.93;;;4.50;;
789;SDS011;378;48.844;9.156;2024-03-06T08:02:44;10.05;;;5.25;;
789;SDS011;378;48.844;9.156;2024-03-06T08:05:15;9.60;;;4.80;;
789;SDS011;378;48.844;9.156;2024-03-06T08:07:43;10.05;;;5.60;;
789;SDS011;378;48.844;9.156;2024-03-06T08:10:11;11.38;;;4.80;;
789;SDS011;378;48.844;9.156;2024-03-06T08:12:39;11.07;;;5.35;;
789;SDS011;378;48.844;9.156;2024-03-06T08:15:10;10.15;;;5.20;;
789;SDS011;378;48.844;9.156;2024-03-06T08:17:40;11.88;;;5.50;;
789;SDS011;378;48.844;9.156;2024-03-06T08:20:08;13.88;;;5.38;;
789;SDS011;378;48.844;9.156;2024-03-06T08:22:37;13.35;;;5.97;;
789;SDS011;378;48.844;9.156;2024-03-06T08:25:07;10.20;;;5.47;;
789;SDS011;378;48.844;9.156;2024-03-06T08:27:34;11.30;;;5.97;;
789;SDS011;378;48.844;9.156;2024-03-06T08:30:02;21.75;;;6.00;;
789;SDS011;378;48.844;9.156;2024-03-06T08:32:30;12.07;;;6.25;;
789;SDS011;378;48.844;9.156;2024-03-06T08:34:58;11.68;;;5.88;;
789;SDS011;378;48.844;9.156;2024-03-06T08:37:30;12.20;;;5.78;;
789;SDS011;378;48.844;9.156;2024-03-06T08:40:00;13.88;;;6.07;;
789;SDS011;378;48.844;9.156;2024-03-06T08:42:28;12.75;;;6.50;;
789;SDS011;378;48.844;9.156;2024-03-06T08:44:55;14.77;;;6.97;;
789;SDS011;378;48.844;9.156;2024-03-06T08:47:22;18.17;;;7.10;;
789;SDS011;378;48.844;9.156;2024-03-06T08:49:49;10.70;;;6.60;;
789;SDS011;378;48.844;9.156;2024-03-06T08:52:16;9.88;;;6.43;;
789;SDS011;378;48.844;9.156;2024-03-06T08:54:43;15.30;;;6.50;;
789;SDS011;378;48.844;9.156;2024-03-06T08:57:13;11.57;;;6.20;;
789;SDS011;378;48.844;9.156;2024-03-06T08:59:44;8.93;;;6.15;;
789;SDS011;378;48.844;9.156;2024-03-06T09:02:15;13.18;;;7.00;;
789;SDS011;378;48.844;9.156;2024-03-06T09:04:43;15.00;;;6.93;;
789;SDS011;378;48.844;9.156;2024-03-06T09:07:11;17.92;;;7.22;;
789;SDS011;378;48.844;9.156;2024-03-06T09:09:38;13.55;;;6.68;;
789;SDS011;378;48.844;9.156;2024-03-06T09:12:06;14.18;;;7.18;;
789;SDS011;378;48.844;9.156;2024-03-06T09:14:35;9.95;;;6.47;;
789;SDS011;378;48.844;9.156;2024-03-06T09:17:04;15.25;;;6.47;;
789;SDS011;378;48.844;9.156;2024-03-06T09:19:34;12.40;;;5.90;;
789;SDS011;378;48.844;9.156;2024-03-06T09:22:04;12.38;;;5.85;;
789;SDS011;378;48.844;9.156;2024-03-06T09:24:31;12.75;;;5.50;;
789;SDS011;378;48.844;9.156;2024-03-06T09:26:58;10.82;;;5.93;;
789;SDS011;378;48.844;9.156;2024-03-06T09:29:25;11.20;;;6.10;;
789;SDS011;378;48.844;9.156;2024-03-06T09:31:54;11.88;;;6.35;;
789;SDS011;378;48.844;9.156;2024-03-06T09:34:22;12.52;;;6.30;;
789;SDS011;378;48.844;9.156;2024-03-06T09:36:49;16.35;;;6.80;;
789;SDS011;378;48.844;9.156;2024-03-06T09:39:16;12.43;;;6.40;;
789;SDS011;378;48.844;9.156;2024-03-06T09:41:45;12.68;;;7.32;;
789;SDS011;378;48.844;9.156;2024-03-06T09:44:18;15.73;;;8.32;;
789;SDS011;378;48.844;9.156;2024-03-06T09:46:51;21.30;;;9.60;;
789;SDS011;378;48.844;9.156;2024-03-06T09:49:18;16.88;;;8.70;;
789;SDS011;378;48.844;9.156;2024-03-06T09:51:50;20.15;;;10.15;;
789;SDS011;378;48.844;9.156;2024-03-06T09:54:44;20.45;;;10.00;;
789;SDS011;378;48.844;9.156;2024-03-06T10:05:28;19.52;;;10.98;;
789;SDS011;378;48.844;9.156;2024-03-06T10:07:58;22.33;;;11.07;;
789;SDS011;378;48.844;9.156;2024-03-06T10:10:25;23.67;;;11.60;;
789;SDS011;378;48.844;9.156;2024-03-06T10:12:52;18.67;;;11.55;;
789;SDS011;378;48.844;9.156;2024-03-06T10:15:19;21.67;;;11.60;;
789;SDS011;378;48.844;9.156;2024-03-06T10:17:47;22.50;;;11.70;;
789;SDS011;378;48.844;9.156;2024-03-06T10:20:20;19.30;;;11.15;;
789;SDS011;378;48.844;9.156;2024-03-06T10:22:51;27.55;;;13.57;;
789;SDS011;378;48.844;9.156;2024-03-06T10:25:20;24.23;;;12.75;;
789;SDS011;378;48.844;9.156;2024-03-06T10:28:02;29.77;;;13.10;;
789;SDS011;378;48.844;9.156;2024-03-06T10:30:30;25.13;;;13.45;;
789;SDS011;378;48.844;9.156;2024-03-06T10:32:58;27.55;;;13.27;;
789;SDS011;378;48.844;9.156;2024-03-06T10:35:25;26.35;;;14.10;;
789;SDS011;378;48.844;9.156;2024-03-06T10:37:52;26.20;;;15.07;;
789;SDS011;378;48.844;9.156;2024-03-06T10:40:23;25.88;;;14.93;;
789;SDS011;378;48.844;9.156;2024-03-06T10:42:50;26.45;;;14.90;;
789;SDS011;378;48.844;9.156;2024-03-06T10:45:18;33.97;;;16.75;;
789;SDS011;378;48.844;9.156;2024-03-06T10:47:50;34.33;;;16.48;;
789;SDS011;378;48.844;9.156;2024-03-06T10:50:18;30.83;;;16.83;;
789;SDS011;378;48.844;9.156;2024-03-06T10:52:46;33.60;;;17.52;;
789;SDS011;378;48.844;9.156;2024-03-06T10:55:15;33.08;;;17.40;;
789;SDS011;378;48.844;9.156;2024-03-06T10:57:44;33.85;;;18.58;;
789;SDS011;378;48.844;9.156;2024-03-06T11:00:13;34.50;;;18.40;;
789;SDS011;378;48.844;9.156;2024-03-06T11:02:45;34.88;;;18.25;;
789;SDS011;378;48.844;9.156;2024-03-06T11:05:14;32.55;;;18.02;;
789;SDS011;378;48.844;9.156;2024-03-06T11:07:41;35.63;;;19.10;;
789;SDS011;378;48.844;9.156;2024-03-06T11:10:09;37.22;;;18.60;;
789;SDS011;378;48.844;9.156;2024-03-06T11:12:41;36.80;;;18.65;;
789;SDS011;378;48.844;9.156;2024-03-06T11:15:12;41.38;;;20.20;;
789;SDS011;378;48.844;9.156;2024-03-06T11:17:41;42.33;;;20.38;;
789;SDS011;378;48.844;9.156;2024-03-06T11:20:12;37.15;;;20.30;;
789;SDS011;378;48.844;9.156;2024-03-06T11:23:03;42.88;;;20.67;;
789;SDS011;378;48.844;9.156;2024-03-06T11:28:42;41.03;;;21.50;;
789;SDS011;378;48.844;9.156;2024-03-06T11:31:16;47.58;;;22.48;;
789;SDS011;378;48.844;9.156;2024-03-06T11:33:53;40.80;;;21.02;;
789;SDS011;378;48.844;9.156;2024-03-06T11:36:22;42.28;;;20.95;;
789;SDS011;378;48.844;9.156;2024-03-06T11:38:51;37.90;;;20.75;;
789;SDS011;378;48.844;9.156;2024-03-06T11:41:21;43.88;;;21.65;;
789;SDS011;378;48.844;9.156;2024-03-06T11:43:49;44.42;;;21.88;;
789;SDS011;378;48.844;9.156;2024-03-06T11:46:20;42.65;;;21.70;;
789;SDS011;378;48.844;9.156;2024-03-06T11:48:53;45.25;;;21.42;;
789;SDS011;378;48.844;9.156;2024-03-06T11:51:21;47.22;;;23.58;;
789;SDS011;378;48.844;9.156;2024-03-06T11:53:49;51.20;;;24.70;;
789;SDS011;378;48.844;9.156;2024-03-06T11:56:17;43.40;;;22.90;;
789;SDS011;378;48.844;9.156;2024-03-06T11:58:45;45.75;;;23.55;;
789;SDS011;378;48.844;9.156;2024-03-06T12:01:12;44.38;;;22.85;;
789;SDS011;378;48.844;9.156;2024-03-06T12:03:41;43.80;;;22.80;;
789;SDS011;378;48.844;9.156;2024-03-06T12:06:09;41.35;;;22.95;;
789;SDS011;378;48.844;9.156;2024-03-06T12:08:36;43.72;;;22.20;;
789;SDS011;378;48.844;9.156;2024-03-06T12:11:04;43.40;;;22.17;;
789;SDS011;378;48.844;9.156;2024-03-06T12:13:32;45.85;;;21.92;;
789;SDS011;378;48.844;9.156;2024-03-06T12:16:03;45.92;;;22.23;;
789;SDS011;378;48.844;9.156;2024-03-06T12:18:31;40.30;;;21.50;;
789;SDS011;378;48.844;9.156;2024-03-06T12:21:01;42.80;;;21.80;;
789;SDS011;378;48.844;9.156;2024-03-06T12:23:29;46.90;;;23.17;;
789;SDS011;378;48.844;9.156;2024-03-06T12:26:03;44.47;;;23.25;;
789;SDS011;378;48.844;9.156;2024-03-06T12:28:31;48.70;;;22.98;;
789;SDS011;378;48.844;9.156;2024-03-06T12:31:01;46.55;;;22.25;;
789;SDS011;378;48.844;9.156;2024-03-06T12:33:29;46.38;;;22.92;;
789;SDS011;378;48.844;9.156;2024-03-06T12:36:04;43.47;;;22.98;;
789;SDS011;378;48.844;9.156;2024-03-06T12:38:35;42.63;;;22.80;;
789;SDS011;378;48.844;9.156;2024-03-06T12:41:03;45.63;;;22.02;;
789;SDS011;378;48.844;9.156;2024-03-06T12:43:31;48.38;;;22.38;;
789;SDS011;378;48.844;9.156;2024-03-06T12:45:59;46.47;;;22.38;;
789;SDS011;378;48.844;9.156;2024-03-06T12:48:27;42.08;;;22.33;;
789;SDS011;378;48.844;9.156;2024-03-06T12:50:55;42.97;;;21.65;;
789;SDS011;378;48.844;9.156;2024-03-06T12:53:31;41.92;;;21.58;;
789;SDS011;378;48.844;9.156;2024-03-06T12:55:58;37.65;;;21.63;;
789;SDS011;378;48.844;9.156;2024-03-06T12:58:25;40.40;;;21.17;;
789;SDS011;378;48.844;9.156;2024-03-06T13:01:09;39.67;;;20.95;;
789;SDS011;378;48.844;9.156;2024-03-06T13:03:36;42.92;;;21.33;;
789;SDS011;378;48.844;9.156;2024-03-06T13:06:04;40.38;;;21.67;;
789;SDS011;378;48.844;9.156;2024-03-06T13:08:32;40.90;;;21.92;;
789;SDS011;378;48.844;9.156;2024-03-06T13:10:59;37.22;;;20.73;;
789;SDS011;378;48.844;9.156;2024-03-06T13:13:26;41.38;;;21.02;;
789;SDS011;378;48.844;9.156;2024-03-06T13:15:55;34.40;;;19.20;;
789;SDS011;378;48.844;9.156;2024-03-06T13:18:23;33.85;;;18.90;;
789;SDS011;378;48.844;9.156;2024-03-06T13:20:50;37.28;;;19.55;;
789;SDS011;378;48.844;9.156;2024-03-06T13:23:17;38.03;;;19.85;;
789;SDS011;378;48.844;9.156;2024-03-06T13:25:46;31.35;;;18.08;;
789;SDS011;378;48.844;9.156;2024-03-06T13:28:13;35.50;;;19.80;;
789;SDS011;378;48.844;9.156;2024-03-06T13:30:39;36.35;;;19.73;;
789;SDS011;378;48.844;9.156;2024-03-06T13:33:06;38.22;;;18.63;;
789;SDS011;378;48.844;9.156;2024-03-06T13:35:33;35.00;;;19.55;;
789;SDS011;378;48.844;9.156;2024-03-06T13:38:00;34.35;;;18.92;;
789;SDS011;378;48.844;9.156;2024-03-06T13:40:28;35.08;;;18.88;;
789;SDS011;378;48.844;9.156;2024-03-06T13:42:56;36.53;;;19.23;;
789;SDS011;378;48.844;9.156;2024-03-06T13:45:23;34.20;;;18.55;;
789;SDS011;378;48.844;9.156;2024-03-06T13:47:50;36.25;;;19.63;;
789;SDS011;378;48.844;9.156;2024-03-06T13:50:17;38.10;;;19.33;;
789;SDS011;378;48.844;9.156;2024-03-06T13:52:44;34.15;;;18.70;;
789;SDS011;378;48.844;9.156;2024-03-06T13:55:10;36.40;;;19.35;;
789;SDS011;378;48.844;9.156;2024-03-06T13:57:38;34.67;;;19.42;;
789;SDS011;378;48.844;9.156;2024-03-06T14:00:08;37.33;;;20.20;;
789;SDS011;378;48.844;9.156;2024-03-06T14:02:42;36.55;;;20.00;;
789;SDS011;378;48.844;9.156;2024-03-06T14:05:09;37.38;;;20.40;;
789;SDS011;378;48.844;9.156;2024-03-06T14:07:36;37.78;;;20.52;;
789;SDS011;378;48.844;9.156;2024-03-06T14:10:05;40.22;;;21.83;;
789;SDS011;378;48.844;9.156;2024-03-06T14:12:33;41.15;;;21.25;;
789;SDS011;378;48.844;9.156;2024-03-06T14:15:00;39.70;;;20.98;;
789;SDS011;378;48.844;9.156;2024-03-06T14:17:29;37.97;;;20.55;;
789;SDS011;378;48.844;9.156;2024-03-06T14:19:56;41.60;;;21.30;;
789;SDS011;378;48.844;9.156;2024-03-06T14:22:23;38.05;;;21.50;;
789;SDS011;378;48.844;9.156;2024-03-06T14:24:49;39.45;;;21.00;;
789;SDS011;378;48.844;9.156;2024-03-06T14:27:16;42.95;;;21.83;;
789;SDS011;378;48.844;9.156;2024-03-06T14:29:43;36.90;;;20.63;;
789;SDS011;378;48.844;9.156;2024-03-06T14:32:10;40.35;;;20.80;;
789;SDS011;378;48.844;9.156;2024-03-06T14:34:38;39.80;;;20.75;;
789;SDS011;378;48.844;9.156;2024-03-06T14:37:05;41.83;;;22.02;;
789;SDS011;378;48.844;9.156;2024-03-06T14:39:38;36.40;;;20.10;;
789;SDS011;378;48.844;9.156;2024-03-06T14:42:07;40.58;;;20.73;;
789;SDS011;378;48.844;9.156;2024-03-06T14:44:37;45.70;;;21.05;;
789;SDS011;378;48.844;9.156;2024-03-06T14:47:08;36.22;;;19.13;;
789;SDS011;378;48.844;9.156;2024-03-06T14:49:35;41.95;;;21.67;;
789;SDS011;378;48.844;9.156;2024-03-06T14:52:04;44.75;;;22.55;;
789;SDS011;378;48.844;9.156;2024-03-06T14:54:34;38.17;;;21.52;;
789;SDS011;378;48.844;9.156;2024-03-06T14:57:01;40.88;;;23.33;;
789;SDS011;378;48.844;9.156;2024-03-06T14:59:28;38.65;;;22.02;;
789;SDS011;378;48.844;9.156;2024-03-06T15:01:55;44.70;;;22.63;;
789;SDS011;378;48.844;9.156;2024-03-06T15:04:21;45.28;;;21.92;;
789;SDS011;378;48.844;9.156;2024-03-06T15:06:48;40.20;;;22.25;;
789;SDS011;378;48.844;9.156;2024-03-06T15:09:17;42.85;;;21.88;;
789;SDS011;378;48.844;9.156;2024-03-06T15:11:47;42.88;;;20.65;;
789;SDS011;378;48.844;9.156;2024-03-06T15:14:14;45.15;;;22.23;;
789;SDS011;378;48.844;9.156;2024-03-06T15:16:40;43.13;;;19.95;;
789;SDS011;378;48.844;9.156;2024-03-06T15:19:08;42.50;;;20.88;;
789;SDS011;378;48.844;9.156;2024-03-06T15:21:35;47.35;;;22.65;;
789;SDS011;378;48.844;9.156;2024-03-06T15:24:05;45.42;;;21.05;;
789;SDS011;378;48.844;9.156;2024-03-06T15:26:38;42.33;;;21.38;;
789;SDS011;378;48.844;9.156;2024-03-06T15:29:16;41.53;;;21.25;;
789;SDS011;378;48.844;9.156;2024-03-06T15:31:45;51.67;;;22.52;;
789;SDS011;378;48.844;9.156;2024-03-06T15:34:12;45.58;;;23.02;;
789;SDS011;378;48.844;9.156;2024-03-06T15:36:44;49.45;;;22.45;;
789;SDS011;378;48.844;9.156;2024-03-06T15:39:14;52.85;;;24.08;;
789;SDS011;378;48.844;9.156;2024-03-06T15:41:49;49.33;;;22.45;;
789;SDS011;378;48.844;9.156;2024-03-06T15:44:22;48.20;;;22.20;;
789;SDS011;378;48.844;9.156;2024-03-06T15:46:53;52.40;;;22.80;;
789;SDS011;378;48.844;9.156;2024-03-06T15:49:23;49.78;;;22.13;;
789;SDS011;378;48.844;9.156;2024-03-06T15:51:54;52.67;;;23.23;;
789;SDS011;378;48.844;9.156;2024-03-06T15:54:21;71.72;;;29.92;;